sensor_id;sensor_type;location;lat;lon;timestamp;pressure;altitude;pressure_sealevel;temperature;humidity
11678;BME280;5895;41.950;24.372;2022-09-09T00:00:19;87306.13;;;14.29;67.46
11678;BME280;5895;41.950;24.372;2022-09-09T00:02:55;87308.28;;;14.33;70.85
11678;BME280;5895;41.950;24.372;2022-09-09T00:05:29;87306.72;;;14.32;69.94
11678;BME280;5895;41.950;24.372;2022-09-09T00:08:02;87305.59;;;14.27;68.58
11678;BME280;5895;41.950;24.372;2022-09-09T00:10:36;87289.38;;;14.25;68.92
11678;BME280;5895;41.950;24.372;2022-09-09T00:13:14;87292.91;;;14.19;69.54
11678;BME280;5895;41.950;24.372;2022-09-09T00:15:48;87292.28;;;14.12;68.32
11678;BME280;5895;41.950;24.372;2022-09-09T00:18:24;87293.22;;;14.06;69.09
11678;BME280;5895;41.950;24.372;2022-09-09T00:20:58;87296.66;;;13.95;67.71
11678;BME280;5895;41.950;24.372;2022-09-09T00:23:34;87293.97;;;13.90;68.68
11678;BME280;5895;41.950;24.372;2022-09-09T00:26:09;87293.56;;;13.81;67.98
11678;BME280;5895;41.950;24.372;2022-09-09T00:28:45;87289.50;;;13.73;67.54
11678;BME280;5895;41.950;24.372;2022-09-09T00:31:18;87294.06;;;13.66;67.89
11678;BME280;5895;41.950;24.372;2022-09-09T00:33:49;87303.38;;;13.62;67.61
11678;BME280;5895;41.950;24.372;2022-09-09T00:36:21;87308.03;;;13.60;67.74
11678;BME280;5895;41.950;24.372;2022-09-09T00:38:55;87301.00;;;13.61;69.66
11678;BME280;5895;41.950;24.372;2022-09-09T00:41:31;87296.03;;;13.59;69.90
11678;BME280;5895;41.950;24.372;2022-09-09T00:44:17;87288.19;;;13.59;71.12
11678;BME280;5895;41.950;24.372;2022-09-09T00:46:59;87286.84;;;13.57;70.89
11678;BME280;5895;41.950;24.372;2022-09-09T00:49:39;87297.50;;;13.55;70.30
11678;BME280;5895;41.950;24.372;2022-09-09T00:52:26;87293.56;;;13.53;71.72
11678;BME280;5895;41.950;24.372;2022-09-09T00:55:05;87298.78;;;13.53;71.06
11678;BME280;5895;41.950;24.372;2022-09-09T00:57:36;87286.97;;;13.50;68.83
11678;BME280;5895;41.950;24.372;2022-09-09T01:00:21;87292.75;;;13.52;73.15
11678;BME280;5895;41.950;24.372;2022-09-09T01:02:58;87287.53;;;13.52;71.26
11678;BME280;5895;41.950;24.372;2022-09-09T01:05:35;87283.13;;;13.53;70.52
11678;BME280;5895;41.950;24.372;2022-09-09T01:08:14;87283.91;;;13.53;70.14
11678;BME280;5895;41.950;24.372;2022-09-09T01:10:51;87285.75;;;13.53;70.12
11678;BME280;5895;41.950;24.372;2022-09-09T01:13:22;87291.75;;;13.53;70.27
11678;BME280;5895;41.950;24.372;2022-09-09T01:15:51;87283.13;;;13.53;69.82
11678;BME280;5895;41.950;24.372;2022-09-09T01:18:22;87281.53;;;13.52;70.15
11678;BME280;5895;41.950;24.372;2022-09-09T01:20:59;87279.69;;;13.52;71.14
11678;BME280;5895;41.950;24.372;2022-09-09T01:23:40;87292.75;;;13.52;72.73
11678;BME280;5895;41.950;24.372;2022-09-09T01:26:15;87281.22;;;13.48;70.44
11678;BME280;5895;41.950;24.372;2022-09-09T01:28:44;87285.28;;;13.44;69.76
11678;BME280;5895;41.950;24.372;2022-09-09T01:31:17;87292.09;;;13.45;70.66
11678;BME280;5895;41.950;24.372;2022-09-09T01:33:45;87280.53;;;13.41;69.99
11678;BME280;5895;41.950;24.372;2022-09-09T01:36:19;87286.22;;;13.38;70.29
11678;BME280;5895;41.950;24.372;2022-09-09T01:38:48;87280.47;;;13.36;70.42
11678;BME280;5895;41.950;24.372;2022-09-09T01:41:17;87280.22;;;13.37;70.39
11678;BME280;5895;41.950;24.372;2022-09-09T01:43:45;87274.53;;;13.40;69.68
11678;BME280;5895;41.950;24.372;2022-09-09T01:46:13;87271.72;;;13.42;69.93
11678;BME280;5895;41.950;24.372;2022-09-09T01:48:41;87270.00;;;13.47;70.47
11678;BME280;5895;41.950;24.372;2022-09-09T01:51:09;87264.78;;;13.47;70.42
11678;BME280;5895;41.950;24.372;2022-09-09T01:53:38;87268.38;;;13.46;71.25
11678;BME280;5895;41.950;24.372;2022-09-09T01:56:14;87272.38;;;13.49;73.42
11678;BME280;5895;41.950;24.372;2022-09-09T01:58:56;87273.16;;;13.49;74.78
11678;BME280;5895;41.950;24.372;2022-09-09T02:01:35;87269.75;;;13.49;72.77
11678;BME280;5895;41.950;24.372;2022-09-09T02:04:15;87267.59;;;13.46;72.36
11678;BME280;5895;41.950;24.372;2022-09-09T02:06:46;87265.47;;;13.43;71.16
11678;BME280;5895;41.950;24.372;2022-09-09T02:09:19;87268.38;;;13.46;73.36
11678;BME280;5895;41.950;24.372;2022-09-09T02:11:54;87264.00;;;13.47;72.27
11678;BME280;5895;41.950;24.372;2022-09-09T02:14:30;87256.97;;;13.47;73.73
11678;BME280;5895;41.950;24.372;2022-09-09T02:17:05;87251.50;;;13.49;72.05
11678;BME280;5895;41.950;24.372;2022-09-09T02:19:36;87251.16;;;13.45;72.49
11678;BME280;5895;41.950;24.372;2022-09-09T02:22:04;87259.22;;;13.44;71.73
11678;BME280;5895;41.950;24.372;2022-09-09T02:24:35;87257.56;;;13.38;71.01
11678;BME280;5895;41.950;24.372;2022-09-09T02:27:05;87257.44;;;13.33;70.04
11678;BME280;5895;41.950;24.372;2022-09-09T02:29:38;87265.66;;;13.25;70.46
11678;BME280;5895;41.950;24.372;2022-09-09T02:32:09;87261.44;;;13.12;70.18
11678;BME280;5895;41.950;24.372;2022-09-09T02:34:41;87267.25;;;13.02;nan
11678;BME280;5895;41.950;24.372;2022-09-09T02:37:11;87272.91;;;12.99;69.85
11678;BME280;5895;41.950;24.372;2022-09-09T02:39:40;87269.75;;;12.97;70.76
11678;BME280;5895;41.950;24.372;2022-09-09T02:42:07;87261.94;;;12.97;70.84
11678;BME280;5895;41.950;24.372;2022-09-09T02:44:36;87267.34;;;12.95;70.40
11678;BME280;5895;41.950;24.372;2022-09-09T02:47:24;87268.94;;;12.96;76.08
11678;BME280;5895;41.950;24.372;2022-09-09T02:50:00;87259.31;;;12.97;72.51
11678;BME280;5895;41.950;24.372;2022-09-09T02:52:33;87257.28;;;12.99;71.77
11678;BME280;5895;41.950;24.372;2022-09-09T02:55:11;87260.78;;;13.05;74.18
11678;BME280;5895;41.950;24.372;2022-09-09T02:57:43;87252.72;;;13.06;73.30
11678;BME280;5895;41.950;24.372;2022-09-09T03:00:14;87253.84;;;13.10;73.97
11678;BME280;5895;41.950;24.372;2022-09-09T03:02:42;87250.22;;;13.11;72.75
11678;BME280;5895;41.950;24.372;2022-09-09T03:05:11;87247.63;;;13.11;73.39
11678;BME280;5895;41.950;24.372;2022-09-09T03:07:38;87253.84;;;13.10;73.11
11678;BME280;5895;41.950;24.372;2022-09-09T03:10:08;87255.91;;;13.08;73.29
11678;BME280;5895;41.950;24.372;2022-09-09T03:12:36;87257.94;;;13.06;73.65
11678;BME280;5895;41.950;24.372;2022-09-09T03:15:05;87251.63;;;13.02;71.35
11678;BME280;5895;41.950;24.372;2022-09-09T03:17:34;87256.13;;;12.95;71.86
11678;BME280;5895;41.950;24.372;2022-09-09T03:20:02;87264.44;;;12.92;71.48
11678;BME280;5895;41.950;24.372;2022-09-09T03:22:29;87267.03;;;12.92;72.70
11678;BME280;5895;41.950;24.372;2022-09-09T03:24:57;87271.44;;;12.91;72.61
11678;BME280;5895;41.950;24.372;2022-09-09T03:27:24;87267.47;;;12.89;73.08
11678;BME280;5895;41.950;24.372;2022-09-09T03:29:51;87269.97;;;12.84;72.79
11678;BME280;5895;41.950;24.372;2022-09-09T03:32:19;87269.41;;;12.82;72.18
11678;BME280;5895;41.950;24.372;2022-09-09T03:34:49;87269.53;;;12.75;71.39
11678;BME280;5895;41.950;24.372;2022-09-09T03:37:18;87279.84;;;12.70;70.55
11678;BME280;5895;41.950;24.372;2022-09-09T03:39:45;87278.25;;;12.69;71.63
11678;BME280;5895;41.950;24.372;2022-09-09T03:42:13;87277.00;;;12.71;71.77
11678;BME280;5895;41.950;24.372;2022-09-09T03:44:44;87278.56;;;12.73;72.53
11678;BME280;5895;41.950;24.372;2022-09-09T03:47:16;87275.06;;;12.67;71.97
11678;BME280;5895;41.950;24.372;2022-09-09T03:49:45;87269.06;;;12.66;72.55
11678;BME280;5895;41.950;24.372;2022-09-09T03:52:14;87272.25;;;12.68;73.05
11678;BME280;5895;41.950;24.372;2022-09-09T03:54:42;87280.63;;;12.70;72.80
11678;BME280;5895;41.950;24.372;2022-09-09T03:57:09;87271.78;;;12.71;72.60
11678;BME280;5895;41.950;24.372;2022-09-09T03:59:37;87274.94;;;12.74;73.48
11678;BME280;5895;41.950;24.372;2022-09-09T04:02:05;87266.16;;;12.75;72.86
11678;BME280;5895;41.950;24.372;2022-09-09T04:04:32;87266.59;;;12.71;72.99
11678;BME280;5895;41.950;24.372;2022-09-09T04:06:59;87259.56;;;12.72;73.09
11678;BME280;5895;41.950;24.372;2022-09-09T04:09:29;87264.34;;;12.75;74.08
11678;BME280;5895;41.950;24.372;2022-09-09T04:11:56;87259.91;;;12.76;73.94
11678;BME280;5895;41.950;24.372;2022-09-09T04:14:24;87261.25;;;12.78;74.00
11678;BME280;5895;41.950;24.372;2022-09-09T04:16:54;87255.84;;;12.80;73.18
11678;BME280;5895;41.950;24.372;2022-09-09T04:19:23;87256.84;;;12.79;72.98
11678;BME280;5895;41.950;24.372;2022-09-09T04:21:51;87251.19;;;12.82;73.56
11678;BME280;5895;41.950;24.372;2022-09-09T04:24:18;87259.56;;;12.84;73.40
11678;BME280;5895;41.950;24.372;2022-09-09T04:26:48;87259.66;;;12.89;74.79
11678;BME280;5895;41.950;24.372;2022-09-09T04:29:16;87261.81;;;12.92;74.11
11678;BME280;5895;41.950;24.372;2022-09-09T04:31:43;87258.97;;;12.93;73.57
11678;BME280;5895;41.950;24.372;2022-09-09T04:34:10;87262.13;;;12.95;73.77
11678;BME280;5895;41.950;24.372;2022-09-09T04:36:38;87262.47;;;12.99;73.58
11678;BME280;5895;41.950;24.372;2022-09-09T04:39:06;87259.31;;;12.97;73.69
11678;BME280;5895;41.950;24.372;2022-09-09T04:41:33;87262.47;;;12.99;74.54
11678;BME280;5895;41.950;24.372;2022-09-09T04:44:02;87264.06;;;13.00;74.07
11678;BME280;5895;41.950;24.372;2022-09-09T04:46:29;87254.22;;;13.02;74.19
11678;BME280;5895;41.950;24.372;2022-09-09T04:48:57;87252.72;;;13.06;73.57
11678;BME280;5895;41.950;24.372;2022-09-09T04:51:24;87259.50;;;13.07;74.27
11678;BME280;5895;41.950;24.372;2022-09-09T04:53:52;87259.06;;;13.10;73.67
11678;BME280;5895;41.950;24.372;2022-09-09T04:56:19;87264.63;;;13.14;74.59
11678;BME280;5895;41.950;24.372;2022-09-09T04:58:47;87260.50;;;13.18;74.42
11678;BME280;5895;41.950;24.372;2022-09-09T05:01:18;87266.88;;;13.22;74.67
11678;BME280;5895;41.950;24.372;2022-09-09T05:03:46;87271.31;;;13.21;74.05
11678;BME280;5895;41.950;24.372;2022-09-09T05:06:15;87263.03;;;13.25;74.43
11678;BME280;5895;41.950;24.372;2022-09-09T05:08:43;87258.94;;;13.29;74.53
11678;BME280;5895;41.950;24.372;2022-09-09T05:11:18;87260.06;;;13.33;74.98
11678;BME280;5895;41.950;24.372;2022-09-09T05:13:46;87254.59;;;13.34;74.14
11678;BME280;5895;41.950;24.372;2022-09-09T05:16:14;87259.69;;;13.41;74.07
11678;BME280;5895;41.950;24.372;2022-09-09T05:18:43;87260.34;;;13.48;74.61
11678;BME280;5895;41.950;24.372;2022-09-09T05:21:12;87254.22;;;13.54;74.23
11678;BME280;5895;41.950;24.372;2022-09-09T05:23:40;87252.72;;;13.58;74.64
11678;BME280;5895;41.950;24.372;2022-09-09T05:26:12;87252.78;;;13.63;75.83
11678;BME280;5895;41.950;24.372;2022-09-09T05:28:40;87257.09;;;13.69;74.04
11678;BME280;5895;41.950;24.372;2022-09-09T05:31:09;87253.06;;;13.79;73.58
11678;BME280;5895;41.950;24.372;2022-09-09T05:33:39;87255.41;;;13.92;73.47
11678;BME280;5895;41.950;24.372;2022-09-09T05:36:11;87262.16;;;14.05;74.10
11678;BME280;5895;41.950;24.372;2022-09-09T05:38:41;87256.88;;;14.16;72.87
11678;BME280;5895;41.950;24.372;2022-09-09T05:41:09;87263.81;;;14.27;73.81
11678;BME280;5895;41.950;24.372;2022-09-09T05:43:38;87255.13;;;14.39;73.70
11678;BME280;5895;41.950;24.372;2022-09-09T05:46:06;87247.50;;;14.49;73.99
11678;BME280;5895;41.950;24.372;2022-09-09T05:48:40;87248.19;;;14.61;74.31
11678;BME280;5895;41.950;24.372;2022-09-09T05:51:14;87255.94;;;14.73;74.22
11678;BME280;5895;41.950;24.372;2022-09-09T05:53:43;87264.72;;;14.84;72.78
11678;BME280;5895;41.950;24.372;2022-09-09T05:56:12;87263.81;;;14.95;72.86
11678;BME280;5895;41.950;24.372;2022-09-09T05:58:41;87258.75;;;15.05;72.45
11678;BME280;5895;41.950;24.372;2022-09-09T06:01:10;87256.31;;;15.20;72.99
11678;BME280;5895;41.950;24.372;2022-09-09T06:03:39;87250.16;;;15.31;74.16
11678;BME280;5895;41.950;24.372;2022-09-09T06:06:08;87240.88;;;15.41;74.84
11678;BME280;5895;41.950;24.372;2022-09-09T06:08:39;87244.94;;;15.53;74.53
11678;BME280;5895;41.950;24.372;2022-09-09T06:11:09;87240.66;;;15.64;73.84
11678;BME280;5895;41.950;24.372;2022-09-09T06:13:38;87240.28;;;15.77;72.74
11678;BME280;5895;41.950;24.372;2022-09-09T06:16:06;87251.94;;;15.92;74.47
11678;BME280;5895;41.950;24.372;2022-09-09T06:18:35;87244.72;;;16.04;72.36
11678;BME280;5895;41.950;24.372;2022-09-09T06:21:04;87250.09;;;16.19;70.97
11678;BME280;5895;41.950;24.372;2022-09-09T06:23:32;87254.94;;;16.32;70.37
11678;BME280;5895;41.950;24.372;2022-09-09T06:26:04;87249.53;;;16.44;70.49
11678;BME280;5895;41.950;24.372;2022-09-09T06:28:33;87252.00;;;16.56;69.73
11678;BME280;5895;41.950;24.372;2022-09-09T06:31:01;87244.47;;;16.64;68.80
11678;BME280;5895;41.950;24.372;2022-09-09T06:33:32;87252.16;;;16.76;69.71
11678;BME280;5895;41.950;24.372;2022-09-09T06:36:01;87251.47;;;16.86;68.37
11678;BME280;5895;41.950;24.372;2022-09-09T06:38:29;87250.97;;;16.94;68.25
11678;BME280;5895;41.950;24.372;2022-09-09T06:40:58;87247.63;;;17.04;68.35
11678;BME280;5895;41.950;24.372;2022-09-09T06:43:27;87240.38;;;17.16;69.00
11678;BME280;5895;41.950;24.372;2022-09-09T06:45:56;87245.66;;;17.26;68.26
11678;BME280;5895;41.950;24.372;2022-09-09T06:48:25;87251.75;;;17.37;67.24
11678;BME280;5895;41.950;24.372;2022-09-09T06:51:00;87252.59;;;17.48;69.51
11678;BME280;5895;41.950;24.372;2022-09-09T06:53:28;87255.28;;;17.58;67.02
11678;BME280;5895;41.950;24.372;2022-09-09T06:55:56;87256.91;;;17.69;66.63
11678;BME280;5895;41.950;24.372;2022-09-09T06:58:24;87259.06;;;17.82;66.33
11678;BME280;5895;41.950;24.372;2022-09-09T07:00:53;87252.53;;;17.95;65.63
11678;BME280;5895;41.950;24.372;2022-09-09T07:03:28;87255.22;;;18.05;64.81
11678;BME280;5895;41.950;24.372;2022-09-09T07:05:55;87258.13;;;18.14;65.24
11678;BME280;5895;41.950;24.372;2022-09-09T07:08:23;87262.09;;;18.27;64.68
11678;BME280;5895;41.950;24.372;2022-09-09T07:10:51;87255.81;;;18.38;64.92
11678;BME280;5895;41.950;24.372;2022-09-09T07:13:23;87247.16;;;18.47;64.34
11678;BME280;5895;41.950;24.372;2022-09-09T07:15:51;87251.38;;;18.59;64.76
11678;BME280;5895;41.950;24.372;2022-09-09T07:18:20;87247.97;;;18.68;65.07
11678;BME280;5895;41.950;24.372;2022-09-09T07:20:53;87249.56;;;18.74;62.41
11678;BME280;5895;41.950;24.372;2022-09-09T07:23:22;87255.88;;;18.84;62.58
11678;BME280;5895;41.950;24.372;2022-09-09T07:25:49;87266.66;;;18.92;62.50
11678;BME280;5895;41.950;24.372;2022-09-09T07:28:18;87261.41;;;19.02;63.31
11678;BME280;5895;41.950;24.372;2022-09-09T07:30:53;87265.59;;;19.14;63.71
11678;BME280;5895;41.950;24.372;2022-09-09T07:33:22;87269.25;;;19.28;63.31
11678;BME280;5895;41.950;24.372;2022-09-09T07:35:51;87267.66;;;19.37;62.90
11678;BME280;5895;41.950;24.372;2022-09-09T07:38:19;87267.09;;;19.50;62.86
11678;BME280;5895;41.950;24.372;2022-09-09T07:40:47;87260.28;;;19.60;61.63
11678;BME280;5895;41.950;24.372;2022-09-09T07:43:15;87258.41;;;19.70;60.81
11678;BME280;5895;41.950;24.372;2022-09-09T07:45:43;87255.19;;;19.84;61.54
11678;BME280;5895;41.950;24.372;2022-09-09T07:48:10;87255.94;;;19.94;61.09
11678;BME280;5895;41.950;24.372;2022-09-09T07:50:39;87257.47;;;20.11;60.78
11678;BME280;5895;41.950;24.372;2022-09-09T07:53:07;87253.19;;;20.20;60.70
11678;BME280;5895;41.950;24.372;2022-09-09T07:55:34;87255.28;;;20.28;60.81
11678;BME280;5895;41.950;24.372;2022-09-09T07:58:01;87259.97;;;20.36;60.38
11678;BME280;5895;41.950;24.372;2022-09-09T08:00:29;87257.84;;;20.43;59.58
11678;BME280;5895;41.950;24.372;2022-09-09T08:02:56;87256.22;;;20.52;59.60
11678;BME280;5895;41.950;24.372;2022-09-09T08:05:24;87260.38;;;20.58;59.32
11678;BME280;5895;41.950;24.372;2022-09-09T08:07:53;87253.50;;;20.68;59.86
11678;BME280;5895;41.950;24.372;2022-09-09T08:10:20;87259.75;;;20.77;59.88
11678;BME280;5895;41.950;24.372;2022-09-09T08:12:48;87260.72;;;20.86;59.53
11678;BME280;5895;41.950;24.372;2022-09-09T08:15:16;87252.25;;;20.94;59.79
11678;BME280;5895;41.950;24.372;2022-09-09T08:17:43;87248.50;;;21.00;58.97
11678;BME280;5895;41.950;24.372;2022-09-09T08:20:11;87248.94;;;21.12;59.03
11678;BME280;5895;41.950;24.372;2022-09-09T08:22:38;87242.78;;;21.22;58.30
11678;BME280;5895;41.950;24.372;2022-09-09T08:25:08;87253.75;;;21.39;58.24
11678;BME280;5895;41.950;24.372;2022-09-09T08:27:36;87249.38;;;21.54;58.77
11678;BME280;5895;41.950;24.372;2022-09-09T08:30:05;87237.38;;;21.67;59.42
11678;BME280;5895;41.950;24.372;2022-09-09T08:32:33;87242.78;;;21.80;58.61
11678;BME280;5895;41.950;24.372;2022-09-09T08:35:00;87247.72;;;21.87;58.58
11678;BME280;5895;41.950;24.372;2022-09-09T08:37:28;87241.25;;;21.98;58.46
11678;BME280;5895;41.950;24.372;2022-09-09T08:39:55;87246.41;;;22.13;57.96
11678;BME280;5895;41.950;24.372;2022-09-09T08:42:38;87238.84;;;22.26;56.58
11678;BME280;5895;41.950;24.372;2022-09-09T08:45:24;87243.41;;;22.39;57.59
11678;BME280;5895;41.950;24.372;2022-09-09T08:48:03;87243.88;;;22.46;56.23
11678;BME280;5895;41.950;24.372;2022-09-09T08:50:36;87240.50;;;22.59;57.25
11678;BME280;5895;41.950;24.372;2022-09-09T08:53:11;87254.63;;;22.74;56.45
11678;BME280;5895;41.950;24.372;2022-09-09T08:55:46;87242.28;;;22.83;57.33
11678;BME280;5895;41.950;24.372;2022-09-09T08:58:17;87240.13;;;22.90;57.00
11678;BME280;5895;41.950;24.372;2022-09-09T09:01:02;87233.44;;;23.11;56.30
11678;BME280;5895;41.950;24.372;2022-09-09T09:03:46;87241.22;;;23.21;56.34
11678;BME280;5895;41.950;24.372;2022-09-09T09:06:26;87235.91;;;23.40;55.12
11678;BME280;5895;41.950;24.372;2022-09-09T09:09:00;87230.22;;;23.47;56.12
11678;BME280;5895;41.950;24.372;2022-09-09T09:11:35;87243.28;;;23.57;55.16
11678;BME280;5895;41.950;24.372;2022-09-09T09:14:09;87239.56;;;23.58;55.13
11678;BME280;5895;41.950;24.372;2022-09-09T09:16:40;87236.31;;;23.61;55.25
11678;BME280;5895;41.950;24.372;2022-09-09T09:19:13;87239.91;;;23.70;54.28
11678;BME280;5895;41.950;24.372;2022-09-09T09:21:43;87240.31;;;23.78;55.06
11678;BME280;5895;41.950;24.372;2022-09-09T09:24:18;87237.91;;;23.62;54.22
11678;BME280;5895;41.950;24.372;2022-09-09T09:26:46;87230.88;;;23.71;55.92
11678;BME280;5895;41.950;24.372;2022-09-09T09:29:17;87235.38;;;23.71;53.25
11678;BME280;5895;41.950;24.372;2022-09-09T09:31:48;87236.56;;;23.79;53.14
11678;BME280;5895;41.950;24.372;2022-09-09T09:34:17;87227.34;;;23.90;54.00
11678;BME280;5895;41.950;24.372;2022-09-09T09:36:51;87231.47;;;23.96;53.02
11678;BME280;5895;41.950;24.372;2022-09-09T09:39:24;87229.72;;;24.05;52.37
11678;BME280;5895;41.950;24.372;2022-09-09T09:41:52;87226.19;;;24.10;53.58
11678;BME280;5895;41.950;24.372;2022-09-09T09:44:26;87220.50;;;24.16;50.12
11678;BME280;5895;41.950;24.372;2022-09-09T09:47:06;87211.25;;;24.27;50.09
11678;BME280;5895;41.950;24.372;2022-09-09T09:49:34;87220.31;;;24.40;52.92
11678;BME280;5895;41.950;24.372;2022-09-09T09:52:02;87222.94;;;24.54;52.68
11678;BME280;5895;41.950;24.372;2022-09-09T09:54:32;87225.75;;;24.71;53.04
11678;BME280;5895;41.950;24.372;2022-09-09T09:57:11;87219.41;;;24.95;48.18
11678;BME280;5895;41.950;24.372;2022-09-09T09:59:42;87213.28;;;25.08;51.75
11678;BME280;5895;41.950;24.372;2022-09-09T10:02:19;87206.78;;;25.14;49.36
11678;BME280;5895;41.950;24.372;2022-09-09T10:05:00;87205.94;;;25.27;49.53
11678;BME280;5895;41.950;24.372;2022-09-09T10:07:28;87215.09;;;25.66;51.07
11678;BME280;5895;41.950;24.372;2022-09-09T10:09:57;87210.72;;;25.93;49.66
11678;BME280;5895;41.950;24.372;2022-09-09T10:12:35;87209.56;;;26.16;47.25
11678;BME280;5895;41.950;24.372;2022-09-09T10:18:04;87206.06;;;26.38;46.59
11678;BME280;5895;41.950;24.372;2022-09-09T10:20:43;87210.22;;;26.61;47.52
11678;BME280;5895;41.950;24.372;2022-09-09T10:23:23;87210.03;;;26.58;47.10
11678;BME280;5895;41.950;24.372;2022-09-09T10:26:11;87214.59;;;26.75;44.89
11678;BME280;5895;41.950;24.372;2022-09-09T10:29:22;87201.34;;;27.09;43.17
11678;BME280;5895;41.950;24.372;2022-09-09T10:32:05;87205.25;;;27.03;43.44
11678;BME280;5895;41.950;24.372;2022-09-09T10:34:55;87201.34;;;27.01;42.48
11678;BME280;5895;41.950;24.372;2022-09-09T10:37:41;87200.66;;;26.60;45.03
11678;BME280;5895;41.950;24.372;2022-09-09T10:40:25;87197.34;;;26.15;45.19
11678;BME280;5895;41.950;24.372;2022-09-09T10:43:09;87197.00;;;26.08;46.02
11678;BME280;5895;41.950;24.372;2022-09-09T10:45:52;87208.59;;;25.50;47.80
11678;BME280;5895;41.950;24.372;2022-09-09T10:48:31;87212.41;;;24.99;48.95
11678;BME280;5895;41.950;24.372;2022-09-09T10:51:11;87206.09;;;24.72;50.00
11678;BME280;5895;41.950;24.372;2022-09-09T10:53:53;87203.69;;;24.98;50.95
11678;BME280;5895;41.950;24.372;2022-09-09T10:56:26;87195.06;;;24.79;52.52
11678;BME280;5895;41.950;24.372;2022-09-09T10:58:59;87197.50;;;24.53;51.30
11678;BME280;5895;41.950;24.372;2022-09-09T11:01:31;87202.31;;;24.23;52.73
11678;BME280;5895;41.950;24.372;2022-09-09T11:04:08;87198.00;;;24.00;52.02
11678;BME280;5895;41.950;24.372;2022-09-09T11:06:41;87200.84;;;23.90;53.79
11678;BME280;5895;41.950;24.372;2022-09-09T11:09:16;87197.16;;;23.91;53.77
11678;BME280;5895;41.950;24.372;2022-09-09T11:11:47;87199.69;;;23.82;54.10
11678;BME280;5895;41.950;24.372;2022-09-09T11:14:21;87189.09;;;23.68;53.63
11678;BME280;5895;41.950;24.372;2022-09-09T11:16:52;87195.94;;;23.69;54.58
11678;BME280;5895;41.950;24.372;2022-09-09T11:19:28;87196.72;;;23.70;52.98
11678;BME280;5895;41.950;24.372;2022-09-09T11:22:02;87203.38;;;23.67;55.24
11678;BME280;5895;41.950;24.372;2022-09-09T11:24:35;87199.22;;;23.61;54.03
11678;BME280;5895;41.950;24.372;2022-09-09T11:27:11;87202.72;;;23.75;55.09
11678;BME280;5895;41.950;24.372;2022-09-09T11:30:04;87205.94;;;23.72;56.36
11678;BME280;5895;41.950;24.372;2022-09-09T11:33:00;87194.56;;;23.72;56.78
11678;BME280;5895;41.950;24.372;2022-09-09T11:35:40;87187.50;;;23.95;56.75
11678;BME280;5895;41.950;24.372;2022-09-09T11:38:18;87193.59;;;24.37;54.73
11678;BME280;5895;41.950;24.372;2022-09-09T11:40:50;87196.91;;;24.56;53.99
11678;BME280;5895;41.950;24.372;2022-09-09T11:43:24;87192.56;;;24.60;53.78
11678;BME280;5895;41.950;24.372;2022-09-09T11:45:55;87191.47;;;24.61;53.79
11678;BME280;5895;41.950;24.372;2022-09-09T11:48:31;87191.31;;;24.44;53.54
11678;BME280;5895;41.950;24.372;2022-09-09T11:51:06;87187.22;;;24.38;53.53
11678;BME280;5895;41.950;24.372;2022-09-09T11:53:36;87192.41;;;24.43;55.20
11678;BME280;5895;41.950;24.372;2022-09-09T11:56:24;87184.72;;;24.55;54.25
11678;BME280;5895;41.950;24.372;2022-09-09T11:58:59;87177.53;;;24.56;55.22
11678;BME280;5895;41.950;24.372;2022-09-09T12:01:38;87177.53;;;24.56;53.14
11678;BME280;5895;41.950;24.372;2022-09-09T12:04:26;87180.25;;;24.42;55.02
11678;BME280;5895;41.950;24.372;2022-09-09T12:07:00;87182.56;;;24.29;56.01
11678;BME280;5895;41.950;24.372;2022-09-09T12:09:33;87183.75;;;24.23;56.59
11678;BME280;5895;41.950;24.372;2022-09-09T12:12:21;87172.75;;;24.44;56.67
11678;BME280;5895;41.950;24.372;2022-09-09T12:14:59;87169.78;;;24.59;54.90
11678;BME280;5895;41.950;24.372;2022-09-09T12:17:29;87175.81;;;24.73;55.44
11678;BME280;5895;41.950;24.372;2022-09-09T12:20:06;87169.94;;;24.99;53.88
11678;BME280;5895;41.950;24.372;2022-09-09T12:22:50;87178.88;;;25.03;51.07
11678;BME280;5895;41.950;24.372;2022-09-09T12:25:26;87172.38;;;25.09;51.06
11678;BME280;5895;41.950;24.372;2022-09-09T12:28:06;87174.94;;;25.00;52.65
11678;BME280;5895;41.950;24.372;2022-09-09T12:30:43;87168.44;;;25.06;53.85
11678;BME280;5895;41.950;24.372;2022-09-09T12:33:19;87174.94;;;25.14;53.10
11678;BME280;5895;41.950;24.372;2022-09-09T12:35:53;87170.00;;;25.08;53.32
11678;BME280;5895;41.950;24.372;2022-09-09T12:38:30;87173.56;;;25.03;52.90
11678;BME280;5895;41.950;24.372;2022-09-09T12:41:02;87165.09;;;25.01;54.34
11678;BME280;5895;41.950;24.372;2022-09-09T12:43:30;87164.75;;;24.94;54.92
11678;BME280;5895;41.950;24.372;2022-09-09T12:46:00;87168.81;;;25.14;54.40
11678;BME280;5895;41.950;24.372;2022-09-09T12:48:36;87159.47;;;25.16;53.39
11678;BME280;5895;41.950;24.372;2022-09-09T12:51:15;87158.69;;;25.02;54.03
11678;BME280;5895;41.950;24.372;2022-09-09T12:53:46;87160.09;;;24.77;55.93
11678;BME280;5895;41.950;24.372;2022-09-09T12:56:19;87169.56;;;24.69;56.50
11678;BME280;5895;41.950;24.372;2022-09-09T12:58:50;87154.59;;;24.73;56.42
11678;BME280;5895;41.950;24.372;2022-09-09T13:01:22;87153.47;;;24.88;56.40
11678;BME280;5895;41.950;24.372;2022-09-09T13:03:51;87150.63;;;25.29;54.98
11678;BME280;5895;41.950;24.372;2022-09-09T13:06:21;87146.19;;;25.47;54.64
11678;BME280;5895;41.950;24.372;2022-09-09T13:08:52;87153.69;;;25.14;55.52
11678;BME280;5895;41.950;24.372;2022-09-09T13:11:23;87149.94;;;25.01;56.16
11678;BME280;5895;41.950;24.372;2022-09-09T13:13:53;87158.16;;;24.91;56.43
11678;BME280;5895;41.950;24.372;2022-09-09T13:16:25;87146.72;;;24.82;56.58
11678;BME280;5895;41.950;24.372;2022-09-09T13:18:58;87147.13;;;24.75;56.67
11678;BME280;5895;41.950;24.372;2022-09-09T13:21:35;87148.16;;;24.52;57.28
11678;BME280;5895;41.950;24.372;2022-09-09T13:24:19;87144.06;;;24.46;58.04
11678;BME280;5895;41.950;24.372;2022-09-09T13:26:55;87138.75;;;24.46;57.87
11678;BME280;5895;41.950;24.372;2022-09-09T13:29:23;87143.47;;;24.49;57.98